TFFR/PTP METAR and TAF weather

Enter ICAO airport designator
Station Type Date Time Source
TFFR METAR 2021/06/24 05:00 UTC NOAA

TFFR 240500Z AUTO 00000KT 9999 BKN020/// BKN029/// BKN037/// ///TCU 24/22 Q1015 TEMPO 4000 SHRA


Station Type Date Time Source
TFFR Decoded METAR 2021/06/24 05:00 UTC NOAA

Le Raizet, Guadeloupe, Guadeloupe (TFFR) 16-16N 061-31W 11M
Jun 24, 2021 - 01:00 AM EDT / 2021.06.24 0500 UTC
Wind: Calm:0
Visibility: greater than 7 mile(s):0
Sky conditions: mostly cloudy
Weather: Towering cumulus clouds observed
Temperature: 75 F (24 C)
Dew Point: 71 F (22 C)
Relative Humidity: 88%
Pressure (altimeter): 29.97 in. Hg (1015 hPa)
ob: TFFR 240500Z AUTO 00000KT 9999 BKN020/// BKN029/// BKN037/// ///TCU 24/22 Q1015 TEMPO 4000 SHRA
cycle: 5

Station Type Date Time Source
TFFR TAF 2021/06/23 11:03 UTC NOAA

TAF
AMD TFFR 231100Z 2311/2412 CNL

Example: see airport list